• Join FlightAware (Why Join?)
  • Login
  • US Flag 
07:45AM EDT


 

Airport Tracker/Info


-or-


 

Live Flight TrackerFlight Track Log ✈ AAL963 ✈ 03-Nov-2013 ✈ KDFW - SBGR / GRU

Flight Track Log - Related Links

Times and Time Zones

All times are in EST time to prevent confusion due to time zone crossing. See the AAL963 flight status page for this flight to view local times or setup timezone preferences in your user account.

Time Position Orientation Groundspeed Altitude Reporting Facility
EST Latitude Longitude Course Direction KTS MPH feet Rate Location/Type
09:39PM 32.9156 -97.0313 360° North 176 203 2,000  Level FlightAware ADS-B (KAFW)
09:41PM 32.8564 -97.0299 179° South 176 203 2,600 420 Climbing FlightAware ADS-B (KAFW)
09:42PM 32.8150 -97.0300 180° South 223 257 3,700 1,860 Climbing FlightAware
09:43PM 32.7810 -97.0170 162° South 254 292 4,900 1,860 Climbing FlightAware
09:43PM 32.7670 -96.9790 114° Southeast 288 331 5,900 2,460 Climbing FlightAware ADS-B (KAFW)
09:44PM 32.7658 -96.8647 91° East 300 345 9,300 2,520 Climbing FlightAware ADS-B (KAFW)
09:45PM 32.7660 -96.8243 90° East 310 357 9,700 840 Climbing FlightAware ADS-B (KAFW)
09:45PM 32.7661 -96.7863 90° East 324 373 9,900 240 Climbing FlightAware ADS-B (KAFW)
09:46PM 32.7659 -96.7467 90° East 350 403 9,900  Level FlightAware ADS-B (KAFW)
09:46PM 32.7656 -96.7202 91° East 350 403 9,900  Level FlightAware ADS-B (KAFW)
09:46PM 32.7652 -96.6863 91° East 344 396 9,900  Level FlightAware ADS-B (KAFW)
09:47PM 32.7640 -96.5860 91° East 342 394 9,900 720 Level FlightAware
09:47PM 32.7636 -96.5470 91° East 340 391 10,900 1,920 Climbing FlightAware ADS-B (KAFW)
09:48PM 32.7606 -96.4162 92° East 361 415 13,000 2,400 Climbing FlightAware ADS-B (KAFW)
09:49PM 32.7590 -96.3360 91° East 367 422 14,700 2,520 Climbing FlightAware
09:50PM 32.7530 -96.2770 97° East 370 426 15,800 1,920 Climbing FlightAware
09:50PM 32.7391 -96.1903 101° East 378 435 17,300 1,740 Climbing FlightAware ADS-B (KAFW)
09:51PM 32.7230 -96.0890 101° East 399 459 18,500 1,620 Climbing FlightAware
09:52PM 32.7050 -95.9740 101° East 413 475 19,900 1,680 Climbing FlightAware
09:53PM 32.6916 -95.8921 101° East 417 480 21,000 1,620 Climbing FlightAware ADS-B
09:53PM 32.6806 -95.8226 101° East 426 490 21,700 1,320 Climbing FlightAware ADS-B
09:54PM 32.6596 -95.6820 100° East 444 511 23,000 1,200 Climbing FlightAware ADS-B
09:55PM 32.6596 -95.6066 90° East 456 525 23,600 1,260 Climbing FlightAware ADS-B
09:55PM 32.6674 -95.4945 85° East 461 531 24,600 720 Climbing FlightAware ADS-B
09:57PM 32.6810 -95.3090 85° East 471 542 25,200 1,200 Climbing FlightAware
09:57PM 32.6900 -95.1600 86° East 482 555 27,300 2,160 Climbing FlightAware
09:58PM 32.6930 -95.1210 85° East 484 557 27,600 180 Climbing FlightAware
09:59PM 32.7030 -94.9830 85° East 484 557 27,600  Level FlightAware
09:59PM 32.7070 -94.9290 85° East 484 557 27,600  Level FlightAware
10:00PM 32.7160 -94.7980 85° East 484 557 27,600 1,380 Level FlightAware
10:01PM 32.6152 -94.5214 113° Southeast 504 580 31,000 1,740 Climbing FlightAware ADS-B
10:02PM 32.5842 -94.4386 114° Southeast 515 593 31,000  Level FlightAware ADS-B
10:03PM 32.5537 -94.3565 114° Southeast 539 620 31,000  Level FlightAware ADS-B
10:03PM 32.5226 -94.2719 114° Southeast 550 633 31,000  Level FlightAware ADS-B
10:04PM 32.4916 -94.1881 114° Southeast 552 635 31,000  Level FlightAware ADS-B
10:04PM 32.4604 -94.1037 114° Southeast 550 633 31,000  Level FlightAware ADS-B
10:05PM 32.4288 -94.0188 114° Southeast 552 635 31,000  Level FlightAware ADS-B
10:05PM 32.3979 -93.9358 114° Southeast 552 635 31,000  Level FlightAware ADS-B
10:06PM 32.3668 -93.8528 114° Southeast 553 636 31,000  Level FlightAware ADS-B
10:06PM 32.3301 -93.7551 114° Southeast 552 635 31,000  Level FlightAware ADS-B
10:12PM 31.9838 -92.8473 114° Southeast 560 644 31,000  Level FlightAware ADS-B
10:12PM 31.9519 -92.7636 114° Southeast 559 643 31,000  Level Houston Center
10:13PM 31.8869 -92.5978 115° Southeast 558 642 31,000  Level Houston Center
10:14PM 31.8100 -92.3994 114° Southeast 556 640 31,000  Level Houston Center
10:15PM 31.7453 -92.2350 115° Southeast 554 638 31,000  Level Houston Center
10:16PM 31.6803 -92.0703 115° Southeast 556 640 31,000  Level Houston Center
10:17PM 31.6189 -91.9139 115° Southeast 555 639 31,000  Level Houston Center
10:18PM 31.5539 -91.7514 115° Southeast 551 634 31,000  Level Houston Center
10:20PM 31.4883 -91.5875 115° Southeast 552 635 31,000  Level Houston Center
10:21PM 31.4236 -91.4244 115° Southeast 553 636 31,000  Level Houston Center
10:22PM 31.3581 -91.2631 115° Southeast 550 633 31,000  Level Houston Center
10:27PM 31.0070 -90.4050 115° Southeast 551 634 31,000  Level FlightAware
10:27PM 30.9920 -90.3700 117° Southeast 551 634 31,000  Level FlightAware
10:28PM 30.9400 -90.2440 116° Southeast 550 633 31,000  Level FlightAware
10:28PM 30.8860 -90.1150 116° Southeast 551 634 31,000  Level FlightAware
10:29PM 30.8270 -89.9720 116° Southeast 550 633 31,000  Level FlightAware
10:30PM 30.7610 -89.8150 116° Southeast 543 625 31,000  Level FlightAware
10:31PM 30.7120 -89.6990 116° Southeast 538 619 31,000  Level FlightAware
10:32PM 30.6590 -89.5750 116° Southeast 538 619 31,000  Level FlightAware
10:33PM 30.6160 -89.4720 116° Southeast 537 618 31,000  Level FlightAware
10:33PM 30.5620 -89.3470 117° Southeast 537 618 31,000  Level FlightAware
10:34PM 30.5060 -89.2140 116° Southeast 537 618 31,000  Level FlightAware
10:35PM 30.4610 -89.1090 116° Southeast 537 618 31,000  Level FlightAware
10:36PM 30.4000 -88.9680 117° Southeast 538 619 31,000  Level FlightAware
10:37PM 30.3370 -88.8220 117° Southeast 538 619 31,000  Level FlightAware
10:38PM 30.2790 -88.6870 116° Southeast 538 619 31,000  Level FlightAware
10:38PM 30.2260 -88.5650 117° Southeast 536 617 31,000  Level FlightAware
10:39PM 30.1730 -88.4430 117° Southeast 537 618 31,000  Level FlightAware
10:40PM 30.1120 -88.3030 117° Southeast 537 618 31,000  Level FlightAware
10:41PM 30.0550 -88.1740 117° Southeast 535 616 31,000  Level FlightAware
10:41PM 30.0270 -88.1100 117° Southeast 534 615 31,000  Level FlightAware
10:42PM 29.9690 -87.9780 117° Southeast 532 612 31,000  Level FlightAware
10:43PM 29.9220 -87.8720 117° Southeast 530 610 31,000  Level FlightAware
10:44PM 29.8630 -87.7390 117° Southeast 530 610 31,000  Level FlightAware
10:44PM 29.8360 -87.6790 117° Southeast 529 609 31,000  Level FlightAware
10:45PM 29.7860 -87.5670 117° Southeast 530 610 31,000  Level FlightAware
10:46PM 29.7280 -87.4380 117° Southeast 529 609 31,000  Level FlightAware
10:46PM 29.7040 -87.3840 117° Southeast 529 609 31,000  Level FlightAware
10:47PM 29.6420 -87.2440 117° Southeast 529 609 31,000  Level FlightAware
10:48PM 29.5560 -87.0550 118° Southeast 528 608 31,000  Level FlightAware
10:49PM 29.4940 -86.9180 117° Southeast 527 606 31,000  Level FlightAware
10:50PM 29.4380 -86.7940 117° Southeast 526 605 31,000  Level FlightAware
10:51PM 29.3650 -86.6360 118° Southeast 526 605 31,000  Level FlightAware
10:52PM 29.3110 -86.5170 117° Southeast 524 603 31,000  Level FlightAware
10:53PM 29.2740 -86.4350 117° Southeast 522 601 31,000  Level FlightAware
10:53PM 29.2370 -86.3560 118° Southeast 522 601 31,000  Level FlightAware
10:54PM 29.1950 -86.2650 118° Southeast 521 600 31,000  Level FlightAware
10:55PM 29.1390 -86.1440 118° Southeast 521 600 31,000  Level FlightAware
10:55PM 29.0830 -86.0220 118° Southeast 521 600 31,000  Level FlightAware
10:56PM 29.0320 -85.9130 118° Southeast 521 600 31,000  Level FlightAware
10:57PM 29.0000 -85.8450 118° Southeast 520 598 31,000  Level FlightAware
10:57PM 28.9600 -85.7590 118° Southeast 521 600 31,000  Level FlightAware
10:58PM 28.8920 -85.6130 118° Southeast 522 601 31,000  Level FlightAware
10:59PM 28.8680 -85.5630 119° Southeast 522 601 31,000  Level FlightAware
11:00PM 28.8000 -85.4180 118° Southeast 519 597 31,000  Level FlightAware
11:00PM 28.7760 -85.3670 118° Southeast 519 597 31,000  Level FlightAware
11:01PM 28.7180 -85.2430 118° Southeast 519 597 31,000  Level FlightAware
11:01PM 28.6720 -85.1460 118° Southeast 519 597 31,000  Level FlightAware
11:02PM 28.6160 -85.0290 119° Southeast 518 596 31,000  Level FlightAware
11:03PM 28.5570 -84.9050 118° Southeast 518 596 31,000  Level FlightAware
11:04PM 28.4740 -84.7550 122° Southeast 519 597 31,000  Level FlightAware
11:05PM 28.4250 -84.6710 124° Southeast 518 596 31,000  Level FlightAware
11:06PM 28.3690 -84.5770 124° Southeast 518 596 31,000  Level FlightAware
11:07PM 28.2900 -84.4450 124° Southeast 517 595 31,000  Level FlightAware
11:08PM 28.2110 -84.3130 124° Southeast 518 596 31,000  Level FlightAware
11:08PM 28.1700 -84.2440 124° Southeast 518 596 31,000  Level FlightAware
11:09PM 28.0890 -84.1080 124° Southeast 516 594 31,000  Level FlightAware
11:10PM 28.0240 -84.0000 124° Southeast 516 594 31,000  Level FlightAware
11:11PM 27.9720 -83.9120 124° Southeast 515 593 31,000  Level FlightAware
11:11PM 27.8950 -83.7850 124° Southeast 513 590 31,000  Level FlightAware
11:12PM 27.8290 -83.6760 124° Southeast 512 589 31,000  Level FlightAware
11:13PM 27.7690 -83.5760 124° Southeast 510 587 31,000  Level FlightAware
11:14PM 27.7110 -83.4810 125° Southeast 509 586 31,000  Level FlightAware
11:14PM 27.6820 -83.4330 124° Southeast 508 585 31,000  Level FlightAware
11:15PM 27.6370 -83.3590 124° Southeast 508 585 31,000  Level FlightAware
11:16PM 27.5630 -83.2370 124° Southeast 510 587 31,000  Level FlightAware
11:16PM 27.5016 -83.1366 125° Southeast 509 586 31,000  Level FlightAware ADS-B (KMCO)
11:17PM 27.4549 -83.0602 125° Southeast 511 588 31,000  Level FlightAware ADS-B (KMCO)
11:18PM 27.3850 -82.9470 125° Southeast 511 588 31,000  Level FlightAware
11:19PM 27.3030 -82.8140 125° Southeast 509 586 31,000  Level FlightAware
11:19PM 27.2709 -82.7609 124° Southeast 510 587 31,000  Level FlightAware ADS-B (KMCO)
11:21PM 27.1667 -82.5921 125° Southeast 511 588 31,000  Level FlightAware ADS-B (KMCO)
11:21PM 27.1246 -82.5243 125° Southeast 510 587 31,000  Level FlightAware ADS-B (KMCO)
11:22PM 27.0813 -82.4543 125° Southeast 507 583 31,000  Level FlightAware ADS-B (KMCO)
11:22PM 27.0361 -82.3816 125° Southeast 505 581 31,000  Level FlightAware ADS-B (KMCO)
11:23PM 26.9951 -82.3156 125° Southeast 503 579 31,000  Level FlightAware ADS-B (KMCO)
11:23PM 26.9514 -82.2453 125° Southeast 503 579 31,000  Level FlightAware ADS-B (KMCO)
11:24PM 26.8681 -82.1121 125° Southeast 504 580 31,000  Level FlightAware ADS-B (KMCO)
11:25PM 26.8260 -82.0448 125° Southeast 501 577 31,000  Level FlightAware ADS-B (KMCO)
11:25PM 26.7841 -81.9779 125° Southeast 499 574 31,000  Level FlightAware ADS-B (KMCO)
11:26PM 26.7421 -81.9110 125° Southeast 498 573 31,000  Level FlightAware ADS-B (KMCO)
11:26PM 26.7012 -81.8458 125° Southeast 499 574 31,000  Level FlightAware ADS-B (KMCO)
11:27PM 26.6654 -81.7889 125° Southeast 500 575 31,000  Level FlightAware ADS-B (KMCO)
11:28PM 26.5951 -81.6773 125° Southeast 501 577 31,000  Level FlightAware ADS-B (KMCO)
11:29PM 26.5201 -81.5587 125° Southeast 501 577 31,000  Level FlightAware ADS-B (KMCO)
11:29PM 26.4578 -81.4605 125° Southeast 504 580 31,000  Level FlightAware ADS-B (KMCO)
11:30PM 26.4177 -81.3972 125° Southeast 505 581 31,000  Level FlightAware ADS-B (KMCO)
11:30PM 26.3767 -81.3325 125° Southeast 504 580 31,000  Level FlightAware ADS-B (KMCO)
11:32PM 26.2843 -81.1877 125° Southeast 504 580 31,000  Level FlightAware ADS-B (KMCO)
11:32PM 26.2420 -81.1214 125° Southeast 504 580 31,000  Level FlightAware ADS-B (KMCO)
11:34PM 26.1166 -80.9253 125° Southeast 498 573 31,000  Level FlightAware ADS-B (KMCO)
11:35PM 26.0240 -80.7820 126° Southeast 497 572 31,000  Level FlightAware
11:36PM 25.9570 -80.6780 126° Southeast 499 574 31,000  Level FlightAware
11:36PM 25.9020 -80.5930 126° Southeast 498 573 31,000  Level FlightAware
11:37PM 25.8380 -80.4930 125° Southeast 497 572 31,000  Level FlightAware
11:38PM 25.7840 -80.4100 126° Southeast 498 573 31,000  Level FlightAware
11:39PM 25.6970 -80.2770 126° Southeast 497 572 31,000  Level FlightAware
11:40PM 25.6280 -80.1700 126° Southeast 499 574 31,000  Level FlightAware
11:41PM 25.5570 -80.0620 126° Southeast 497 572 31,000  Level FlightAware
11:41PM 25.5120 -79.9920 125° Southeast 496 571 31,000  Level FlightAware
11:42PM 25.4480 -79.8940 126° Southeast 495 570 31,000  Level FlightAware
11:42PM 25.4050 -79.8300 127° Southeast 498 573 31,000  Level FlightAware
11:43PM 25.3280 -79.7120 126° Southeast 497 572 31,000  Level FlightAware
11:44PM 25.2700 -79.6250 126° Southeast 496 571 31,000  Level FlightAware
11:45PM 25.1930 -79.5070 126° Southeast 495 570 31,000  Level FlightAware
11:46PM 25.1280 -79.4100 126° Southeast 493 567 31,000  Level FlightAware
11:47PM 25.0570 -79.3030 126° Southeast 492 566 31,000  Level FlightAware
11:47PM 25.0120 -79.2350 126° Southeast 492 566 31,000  Level FlightAware
11:48PM 24.9300 -79.1130 127° Southeast 492 566 31,000  Level FlightAware
11:49PM 24.9000 -79.0670 126° Southeast 492 566 31,000  Level FlightAware
11:50PM 24.8230 -78.9520 126° Southeast 491 565 31,000  Level FlightAware
11:50PM 24.7820 -78.8910 127° Southeast 491 565 31,000  Level FlightAware
11:51PM 24.7380 -78.8250 126° Southeast 491 565 31,000  Level FlightAware
11:52PM 24.6370 -78.6730 126° Southeast 491 565 31,000  Level FlightAware
11:53PM 24.5710 -78.5760 127° Southeast 491 565 31,000  Level FlightAware
11:54PM 24.4950 -78.4620 126° Southeast 492 566 31,000  Level FlightAware
11:55PM 24.4390 -78.3780 126° Southeast 492 566 31,000  Level FlightAware
11:55PM 24.3840 -78.2950 126° Southeast 492 566 31,000  Level FlightAware
11:56PM 24.3320 -78.2160 126° Southeast 492 566 31,000  Level FlightAware
11:57PM 24.2640 -78.1130 126° Southeast 492 566 31,000  Level FlightAware
11:58PM 24.2220 -78.0500 126° Southeast 492 566 31,000  Level FlightAware
11:58PM 24.1810 -77.9880 126° Southeast 492 566 31,000  Level FlightAware
11:59PM 24.1530 -77.9470 127° Southeast 492 566 31,000  Level FlightAware
12:00AM 24.0840 -77.8420 126° Southeast 492 566 31,000  Level FlightAware
12:01AM 24.0150 -77.7380 126° Southeast 492 566 31,000  Level FlightAware
12:02AM 23.9600 -77.6550 126° Southeast 492 566 31,000  Level FlightAware
12:02AM 23.9330 -77.6140 126° Southeast 492 566 31,000  Level FlightAware
12:03AM 23.8770 -77.5300 126° Southeast 492 566 31,000  Level FlightAware
12:03AM 23.7242 -77.3447 126° Southeast 490 564 31,000  Level Miami Center
12:04AM 23.6347 -77.2128 126° Southeast 490 564 31,000  Level Miami Center
12:05AM 23.5533 -77.0969 127° Southeast 484 557 31,000  Level Miami Center
12:06AM 23.4742 -76.9811 127° Southeast 484 557 31,000 120 Level Miami Center
12:07AM 23.3928 -76.8633 127° Southeast 484 557 31,300 900 Climbing Miami Center
12:08AM 23.3089 -76.7458 128° Southeast 484 557 32,800 780 Climbing Miami Center
12:09AM 23.2294 -76.6306 127° Southeast 479 551 33,000 60 Climbing Miami Center
12:10AM 23.1497 -76.5178 128° Southeast 479 551 33,000  Level Miami Center
12:11AM 23.0681 -76.4050 128° Southeast 479 551 33,000  Level Miami Center
12:12AM 22.9861 -76.2881 127° Southeast 479 551 33,000  Level Miami Center
12:13AM 22.9042 -76.1711 127° Southeast 484 557 33,000  Level Miami Center
12:14AM 22.8367 -76.0453 120° Southeast 484 557 33,000  Level Miami Center
12:15AM 22.8128 -75.9011 100° East 474 545 33,000  Level Miami Center
12:16AM 22.8056 -75.7525 93° East 480 552 33,000  Level Miami Center
12:17AM 22.7397 -75.6225 119° Southeast 480 552 33,000  Level Miami Center
12:18AM 22.6678 -75.4992 122° Southeast 485 558 33,000  Level Miami Center
12:19AM 22.5728 -75.3992 136° Southeast 480 552 33,000  Level Miami Center
12:20AM 22.4694 -75.3081 141° Southeast 480 552 33,000  Level Miami Center
12:21AM 22.3639 -75.2150 141° Southeast 480 552 33,000  Level Miami Center
12:22AM 22.2628 -75.1219 140° Southeast 480 552 33,000  Level Miami Center
12:23AM 22.1592 -75.0292 140° Southeast 480 552 33,000  Level Miami Center
12:24AM 22.0578 -74.9342 139° Southeast 480 552 33,000  Level Miami Center
12:25AM 21.9522 -74.8394 140° Southeast 480 552 33,000  Level Miami Center
12:26AM 21.8486 -74.7450 140° Southeast 480 552 33,000  Level Miami Center
12:27AM 21.7450 -74.6528 140° Southeast 480 552 33,000 -60 Level Miami Center
12:28AM 21.6453 -74.5539 137° Southeast 480 552 32,900 -60 Descending Miami Center
12:29AM 21.5436 -74.4619 140° Southeast 485 558 32,900  Level Miami Center
12:30AM 21.4378 -74.3700 141° Southeast 485 558 33,000  Climbing Miami Center
12:31AM 21.3339 -74.2761 140° Southeast 485 558 32,900  Descending Miami Center
12:32AM 21.2300 -74.1825 140° Southeast 485 558 33,000  Climbing Miami Center
12:33AM 21.1239 -74.0889 141° Southeast 485 558 33,000 -60 Level Miami Center
12:34AM 21.0178 -73.9933 140° Southeast 485 558 32,900  Descending Miami Center
12:35AM 20.9181 -73.9044 140° Southeast 485 558 33,000  Climbing Miami Center
12:36AM 20.8014 -73.7981 140° Southeast 485 558 32,900  Descending Miami Center
12:37AM 20.6931 -73.7053 141° Southeast 485 558 33,000  Climbing Miami Center
12:38AM 20.5931 -73.6122 139° Southeast 485 558 33,000  Level Miami Center
12:39AM 20.4867 -73.5194 141° Southeast 485 558 33,000 -60 Level Miami Center
12:40AM 20.3803 -73.4247 140° Southeast 492 566 32,900  Descending Miami Center
12:41AM 20.2719 -73.3325 141° Southeast 497 572 33,000  Climbing Miami Center
12:42AM 20.1656 -73.2381 140° Southeast 502 578 33,000  Level Miami Center
12:44AM 20.0455 -73.1288 137° Southeast  Level FlightAware Approximate
12:51AM 19.2961 -72.5104 142° Southeast  Level FlightAware Approximate
12:52AM 19.1883 -72.4232 143° Southeast  Level FlightAware Approximate
12:53AM 19.0805 -72.3362 143° Southeast  Level FlightAware Approximate
12:54AM 18.9726 -72.2492 143° Southeast  Level FlightAware Approximate
12:55AM 18.8647 -72.1624 143° Southeast  Level FlightAware Approximate
12:55AM 18.7670 -72.0860 143° Southeast 493 567 33,000  Level FlightAware
12:56AM 18.7568 -72.0757 143° Southeast  Level FlightAware Approximate
12:56AM 18.6750 -72.0120 143° Southeast 490 564 33,000  Level FlightAware
12:56AM 18.6570 -71.9970 142° Southeast 490 564 33,000  Level FlightAware
12:57AM 18.5630 -71.9190 142° Southeast 490 564 33,000  Level FlightAware
12:58AM 18.4720 -71.8440 142° Southeast 490 564 33,000  Level FlightAware
12:59AM 18.3620 -71.7600 144° Southeast 491 565 33,000  Level FlightAware
01:00AM 18.2650 -71.6830 143° Southeast 489 563 33,000  Level FlightAware
01:01AM 18.1750 -71.6120 143° Southeast 489 563 33,000  Level FlightAware
01:02AM 18.0860 -71.5390 142° Southeast 489 563 33,000  Level FlightAware
01:02AM 18.0320 -71.4990 145° Southeast 489 563 33,000  Level FlightAware
01:03AM 17.9360 -71.4220 143° Southeast 489 563 33,000  Level FlightAware
01:03AM 17.8780 -71.3770 144° Southeast 489 563 33,000  Level FlightAware
01:04AM 17.7830 -71.3000 142° Southeast 489 563 33,000  Level FlightAware
01:05AM 17.7270 -71.2540 142° Southeast 489 563 33,000  Level FlightAware
01:06AM 17.5940 -71.1530 144° Southeast 492 566 33,000  Level FlightAware
01:07AM 17.5350 -71.1070 143° Southeast 493 567 33,000  Level FlightAware
01:07AM 17.4280 -71.0230 143° Southeast 496 571 33,000  Level FlightAware
01:08AM 17.3780 -70.9840 143° Southeast 497 572 33,000  Level FlightAware
01:09AM 17.2450 -70.8800 143° Southeast 500 575 33,000  Level FlightAware
01:10AM 17.1240 -70.7850 143° Southeast 499 574 33,000  Level FlightAware
01:11AM 17.0910 -70.7600 144° Southeast 498 573 33,000  Level FlightAware
01:11AM 17.0540 -70.7310 143° Southeast 498 573 33,000  Level FlightAware
01:12AM 16.9750 -70.6690 143° Southeast 498 573 33,000  Level FlightAware
01:12AM 16.9040 -70.6140 143° Southeast 498 573 33,000  Level FlightAware
01:13AM 16.8280 -70.5550 143° Southeast 499 574 33,000  Level FlightAware
01:14AM 16.7140 -70.4660 143° Southeast 502 578 33,000  Level FlightAware
01:15AM 16.5900 -70.3700 143° Southeast 501 577 33,000  Level FlightAware
01:16AM 16.4790 -70.2840 143° Southeast 501 577 33,000  Level FlightAware
01:17AM 16.3670 -70.1980 144° Southeast 500 575 33,000  Level FlightAware
01:18AM 16.3100 -70.1540 143° Southeast 500 575 33,000  Level FlightAware
01:18AM 16.2510 -70.1080 143° Southeast 500 575 33,000  Level FlightAware
01:19AM 16.1740 -70.0480 143° Southeast 500 575 33,000  Level FlightAware
01:19AM 16.1090 -69.9990 144° Southeast 500 575 33,000  Level FlightAware
01:20AM 16.0470 -69.9510 143° Southeast 500 575 33,000  Level FlightAware
01:20AM 15.9790 -69.8990 144° Southeast 500 575 33,000  Level FlightAware
01:21AM 15.9290 -69.8620 145° Southeast 500 575 33,000  Level FlightAware
01:22AM 15.8590 -69.8110 145° Southeast 501 577 33,000  Level FlightAware
01:22AM 15.8050 -69.7710 145° Southeast 500 575 33,000  Level FlightAware
01:23AM 15.7310 -69.7160 144° Southeast 500 575 33,000  Level FlightAware
01:23AM 15.6740 -69.6730 144° Southeast 500 575 33,000  Level FlightAware
01:24AM 15.6020 -69.6230 146° Southeast 492 566 33,000  Level FlightAware
01:24AM 15.5550 -69.5880 144° Southeast 492 566 33,000  Level FlightAware
01:25AM 15.4760 -69.5310 145° Southeast 499 574 33,000  Level FlightAware
01:26AM 15.4080 -69.4810 145° Southeast 499 574 33,000  Level FlightAware
01:26AM 15.3040 -69.4050 145° Southeast 494 568 33,000  Level FlightAware
01:27AM 15.2190 -69.3440 145° Southeast 494 568 33,000  Level FlightAware
01:28AM 15.1500 -69.2930 144° Southeast 495 570 33,000  Level FlightAware
01:28AM 15.0860 -69.2460 145° Southeast 496 571 33,000  Level FlightAware
01:29AM 15.0280 -69.2050 146° Southeast 497 572 33,000  Level FlightAware
01:30AM 14.9140 -69.1220 145° Southeast 495 570 33,000  Level FlightAware
01:31AM 14.8380 -69.0670 145° Southeast 496 571 33,000  Level FlightAware
01:31AM 14.7310 -68.9900 145° Southeast 495 570 33,000  Level FlightAware
01:32AM 14.6630 -68.9400 145° Southeast 495 570 33,000  Level FlightAware
01:33AM 14.5400 -68.8520 145° Southeast 496 571 33,000  Level FlightAware
01:34AM 14.4820 -68.8090 144° Southeast 495 570 33,000  Level FlightAware
01:35AM 14.3670 -68.7270 145° Southeast 497 572 33,000  Level FlightAware
01:35AM 14.3090 -68.6850 145° Southeast 496 571 33,000  Level FlightAware
01:36AM 14.2440 -68.6380 145° Southeast 495 570 33,000  Level FlightAware
01:36AM 14.1860 -68.5960 145° Southeast 495 570 33,000  Level FlightAware
01:37AM 14.1180 -68.5470 145° Southeast 494 568 33,000  Level FlightAware
01:38AM 13.9940 -68.4580 145° Southeast 494 568 33,000  Level FlightAware
01:39AM 13.8780 -68.3750 145° Southeast 494 568 33,000  Level FlightAware
01:40AM 13.8030 -68.3220 146° Southeast 493 567 33,000  Level FlightAware
01:40AM 13.7350 -68.2730 145° Southeast 492 566 33,000  Level FlightAware
01:41AM 13.6700 -68.2260 145° Southeast 493 567 33,000  Level FlightAware
01:41AM 13.6030 -68.1780 145° Southeast 495 570 33,000  Level FlightAware
01:42AM 13.5460 -68.1380 146° Southeast 495 570 33,000  Level FlightAware
01:42AM 13.4790 -68.0900 145° Southeast 496 571 33,000  Level FlightAware
01:43AM 13.3740 -68.0150 145° Southeast 493 567 33,000  Level FlightAware
01:44AM 13.3160 -67.9730 145° Southeast 494 568 33,000  Level FlightAware
01:44AM 13.2490 -67.9250 145° Southeast 494 568 33,000  Level FlightAware
01:45AM 13.1810 -67.8770 145° Southeast 493 567 33,000  Level FlightAware
01:45AM 13.1250 -67.8370 145° Southeast 494 568 33,000  Level FlightAware
01:46AM 13.0570 -67.7890 145° Southeast 494 568 33,000  Level FlightAware
01:47AM 12.9810 -67.7350 145° Southeast 495 570 33,000  Level FlightAware
01:47AM 12.9320 -67.7010 146° Southeast 495 570 33,000  Level FlightAware
01:48AM 12.8180 -67.6200 145° Southeast 495 570 33,000  Level FlightAware
01:49AM 12.7430 -67.5670 145° Southeast 495 570 33,000  Level FlightAware
01:49AM 12.6940 -67.5320 145° Southeast 496 571 33,000  Level FlightAware
01:50AM 12.6180 -67.4790 146° Southeast 496 571 33,000  Level FlightAware
01:50AM 12.5690 -67.4450 146° Southeast 504 580 33,000  Level FlightAware
01:51AM 12.4420 -67.3550 145° Southeast 504 580 33,000  Level FlightAware
01:53AM 12.3070 -67.2610 146° Southeast 504 580 33,000  Level FlightAware
01:53AM 12.2390 -67.2130 145° Southeast 504 580 33,000  Level FlightAware
01:54AM 12.1630 -67.1600 146° Southeast 504 580 33,000  Level FlightAware
01:55AM 12.0850 -67.1050 145° Southeast 504 580 33,000  Level FlightAware
01:55AM 11.9790 -67.0310 146° Southeast 503 579 33,000  Level FlightAware
01:56AM 11.9240 -66.9930 146° Southeast 504 580 33,000  Level FlightAware
01:56AM 11.8730 -66.9570 145° Southeast 504 580 33,000  Level FlightAware
01:57AM 11.7950 -66.9020 145° Southeast 496 571 33,000  Level FlightAware
01:58AM 11.7290 -66.8560 146° Southeast 504 580 33,000  Level FlightAware
01:58AM 11.6710 -66.8150 145° Southeast 504 580 33,000  Level FlightAware
01:59AM 11.5150 -66.7060 146° Southeast 497 572 33,000  Level FlightAware
02:01AM 11.3890 -66.6180 146° Southeast 506 582 33,000  Level FlightAware
02:01AM 11.3290 -66.5750 145° Southeast 506 582 33,000  Level FlightAware
02:02AM 11.2490 -66.5180 145° Southeast 506 582 33,000  Level FlightAware
02:03AM 11.1900 -66.4760 145° Southeast 506 582 33,000  Level FlightAware
02:04AM 11.0710 -66.3910 145° Southeast 506 582 33,000  Level FlightAware
02:04AM 11.0320 -66.3630 145° Southeast 506 582 33,000  Level FlightAware
02:05AM 10.9330 -66.2920 145° Southeast 506 582 33,000  Level FlightAware
02:06AM 10.8940 -66.2640 145° Southeast 506 582 33,000  Level FlightAware
02:07AM 10.7730 -66.1780 145° Southeast 506 582 33,000  Level FlightAware
02:07AM 10.7340 -66.1500 145° Southeast 506 582 33,000  Level FlightAware
02:08AM 10.6740 -66.1070 145° Southeast 506 582 33,000  Level FlightAware
02:08AM 10.6130 -66.0640 145° Southeast 506 582 33,000  Level FlightAware
02:09AM 10.3790 -65.9010 146° Southeast 492 566 33,000  Level FlightAware
02:11AM 10.2860 -65.8280 142° Southeast 492 566 33,000  Level FlightAware
02:12AM 10.1880 -65.7500 142° Southeast 492 566 33,000  Level FlightAware
02:12AM 10.1320 -65.7050 142° Southeast 492 566 33,000  Level FlightAware
02:13AM 10.0760 -65.6610 142° Southeast 492 566 33,000  Level FlightAware
02:13AM 10.0210 -65.6170 142° Southeast 492 566 33,000  Level FlightAware
02:14AM 9.9640 -65.5720 142° Southeast 492 566 33,000  Level FlightAware
02:15AM 9.8710 -65.4990 142° Southeast 492 566 33,000  Level FlightAware
02:16AM 9.8160 -65.4550 142° Southeast 492 566 33,000  Level FlightAware
02:17AM 9.7250 -65.3820 142° Southeast 492 566 33,000  Level FlightAware
02:17AM 9.6880 -65.3530 142° Southeast 492 566 33,000  Level FlightAware
02:18AM 9.6340 -65.3100 142° Southeast 492 566 33,000  Level FlightAware
02:18AM 9.5600 -65.2520 142° Southeast 492 566 33,000  Level FlightAware
02:22AM 9.2006 -65.0542 145° Southeast  Level FlightAware Approximate
02:23AM 9.0919 -64.9771 145° Southeast  Level FlightAware Approximate
02:24AM 8.9831 -64.9000 145° Southeast  Level FlightAware Approximate
02:25AM 8.8743 -64.8230 145° Southeast  Level FlightAware Approximate
02:26AM 8.7655 -64.7461 145° Southeast  Level FlightAware Approximate
02:27AM 8.6567 -64.6692 145° Southeast  Level FlightAware Approximate
02:28AM 8.5478 -64.5923 145° Southeast  Level FlightAware Approximate
02:29AM 8.4390 -64.5155 145° Southeast  Level FlightAware Approximate
02:30AM 8.3301 -64.4387 145° Southeast  Level FlightAware Approximate
02:31AM 8.2212 -64.3620 145° Southeast  Level FlightAware Approximate
02:32AM 8.1124 -64.2853 145° Southeast  Level FlightAware Approximate
02:33AM 8.0034 -64.2086 145° Southeast  Level FlightAware Approximate
02:34AM 7.8945 -64.1320 145° Southeast  Level FlightAware Approximate
02:35AM 7.7856 -64.0555 145° Southeast  Level FlightAware Approximate
02:36AM 7.6766 -63.9789 145° Southeast  Level FlightAware Approximate
02:37AM 7.5677 -63.9025 145° Southeast  Level FlightAware Approximate
02:38AM 7.4583 -63.8266 146° Southeast  Level FlightAware Approximate
02:39AM 7.3486 -63.7513 146° Southeast  Level FlightAware Approximate
02:40AM 7.2388 -63.6760 146° Southeast  Level FlightAware Approximate
02:41AM 7.1290 -63.6007 146° Southeast  Level FlightAware Approximate
02:42AM 7.0193 -63.5255 146° Southeast  Level FlightAware Approximate
02:43AM 6.9095 -63.4503 146° Southeast  Level FlightAware Approximate
02:44AM 6.7997 -63.3752 146° Southeast  Level FlightAware Approximate
02:45AM 6.6899 -63.3001 146° Southeast  Level FlightAware Approximate
02:46AM 6.5801 -63.2250 146° Southeast  Level FlightAware Approximate
02:47AM 6.4703 -63.1500 146° Southeast  Level FlightAware Approximate
02:48AM 6.3604 -63.0750 146° Southeast  Level FlightAware Approximate
02:49AM 6.2506 -63.0000 146° Southeast  Level FlightAware Approximate
02:50AM 6.1407 -62.9250 146° Southeast  Level FlightAware Approximate
02:51AM 6.0308 -62.8501 146° Southeast  Level FlightAware Approximate
02:52AM 5.9210 -62.7752 146° Southeast  Level FlightAware Approximate
02:53AM 5.8111 -62.7004 146° Southeast  Level FlightAware Approximate
02:54AM 5.7012 -62.6255 146° Southeast  Level FlightAware Approximate
02:55AM 5.5913 -62.5507 146° Southeast  Level FlightAware Approximate
02:56AM 5.4814 -62.4759 146° Southeast  Level FlightAware Approximate
02:57AM 5.3717 -62.4008 146° Southeast  Level FlightAware Approximate
02:58AM 5.2620 -62.3258 146° Southeast  Level FlightAware Approximate
02:59AM 5.1522 -62.2508 146° Southeast  Level FlightAware Approximate
03:00AM 5.0425 -62.1758 146° Southeast  Level FlightAware Approximate
03:01AM 4.9328 -62.1008 146° Southeast  Level FlightAware Approximate
03:02AM 4.8230 -62.0259 146° Southeast  Level FlightAware Approximate
03:03AM 4.7132 -61.9510 146° Southeast  Level FlightAware Approximate
03:04AM 4.6035 -61.8761 146° Southeast  Level FlightAware Approximate
03:05AM 4.4937 -61.8013 146° Southeast  Level FlightAware Approximate
03:06AM 4.3839 -61.7264 146° Southeast  Level FlightAware Approximate
03:07AM 4.2741 -61.6516 146° Southeast  Level FlightAware Approximate
03:08AM 4.1643 -61.5768 146° Southeast  Level FlightAware Approximate
03:09AM 4.0545 -61.5020 146° Southeast  Level FlightAware Approximate
03:10AM 3.9447 -61.4273 146° Southeast  Level FlightAware Approximate
03:11AM 3.8349 -61.3526 146° Southeast  Level FlightAware Approximate
03:12AM 3.7250 -61.2778 146° Southeast  Level FlightAware Approximate
03:13AM 3.6152 -61.2031 146° Southeast  Level FlightAware Approximate
03:14AM 3.5053 -61.1284 146° Southeast  Level FlightAware Approximate
03:15AM 3.3955 -61.0538 146° Southeast  Level FlightAware Approximate
03:16AM 3.2856 -60.9791 146° Southeast  Level FlightAware Approximate
03:17AM 3.1758 -60.9045 146° Southeast  Level FlightAware Approximate
03:18AM 3.0659 -60.8299 146° Southeast  Level FlightAware Approximate
03:19AM 2.9560 -60.7553 146° Southeast  Level FlightAware Approximate
03:20AM 2.8459 -60.6812 153° Southeast  Level FlightAware Approximate
03:21AM 2.7277 -60.6207 153° Southeast  Level FlightAware Approximate
03:22AM 2.6095 -60.5603 153° Southeast  Level FlightAware Approximate
03:23AM 2.4913 -60.4998 153° Southeast  Level FlightAware Approximate
03:24AM 2.3730 -60.4394 153° Southeast  Level FlightAware Approximate
03:25AM 2.2548 -60.3789 153° Southeast  Level FlightAware Approximate
03:26AM 2.1366 -60.3185 153° Southeast  Level FlightAware Approximate
03:27AM 2.0184 -60.2581 153° Southeast  Level FlightAware Approximate
03:28AM 1.9002 -60.1977 153° Southeast  Level FlightAware Approximate
03:29AM 1.7820 -60.1373 153° Southeast  Level FlightAware Approximate
03:30AM 1.6638 -60.0769 153° Southeast  Level FlightAware Approximate
03:31AM 1.5455 -60.0165 153° Southeast  Level FlightAware Approximate
03:32AM 1.4273 -59.9561 153° Southeast  Level FlightAware Approximate
03:33AM 1.3091 -59.8957 153° Southeast  Level FlightAware Approximate
03:34AM 1.1908 -59.8353 153° Southeast  Level FlightAware Approximate
03:35AM 1.0726 -59.7750 153° Southeast  Level FlightAware Approximate
03:36AM 0.9544 -59.7146 153° Southeast  Level FlightAware Approximate
03:37AM 0.8361 -59.6543 153° Southeast  Level FlightAware Approximate
03:38AM 0.7179 -59.5939 153° Southeast  Level FlightAware Approximate
03:39AM 0.5997 -59.5336 153° Southeast  Level FlightAware Approximate
03:40AM 0.4815 -59.4732 153° Southeast  Level FlightAware Approximate
03:41AM 0.3632 -59.4128 153° Southeast  Level FlightAware Approximate
03:42AM 0.2450 -59.3525 153° Southeast  Level FlightAware Approximate
03:43AM 0.1268 -59.2922 153° Southeast  Level FlightAware Approximate
03:44AM 0.0085 -59.2318 153° Southeast  Level FlightAware Approximate
03:45AM -0.1097 -59.1715 153° Southeast  Level FlightAware Approximate
03:46AM -0.2280 -59.1111 153° Southeast  Level FlightAware Approximate
03:47AM -0.3462 -59.0508 153° Southeast  Level FlightAware Approximate
03:48AM -0.4644 -58.9905 153° Southeast  Level FlightAware Approximate
03:49AM -0.5827 -58.9301 153° Southeast  Level FlightAware Approximate
03:50AM -0.7009 -58.8698 153° Southeast  Level FlightAware Approximate
03:51AM -0.8191 -58.8094 153° Southeast  Level FlightAware Approximate
03:52AM -0.9374 -58.7491 153° Southeast  Level FlightAware Approximate
03:53AM -1.0556 -58.6887 153° Southeast  Level FlightAware Approximate
03:54AM -1.1738 -58.6283 153° Southeast  Level FlightAware Approximate
03:55AM -1.2921 -58.5680 153° Southeast  Level FlightAware Approximate
03:56AM -1.4103 -58.5076 153° Southeast  Level FlightAware Approximate
03:57AM -1.5285 -58.4472 153° Southeast  Level FlightAware Approximate
03:58AM -1.6467 -58.3868 153° Southeast  Level FlightAware Approximate
03:59AM -1.7650 -58.3264 153° Southeast  Level FlightAware Approximate
04:00AM -1.8832 -58.2660 153° Southeast  Level FlightAware Approximate
04:01AM -2.0014 -58.2056 153° Southeast  Level FlightAware Approximate
04:02AM -2.1196 -58.1452 153° Southeast  Level FlightAware Approximate
04:03AM -2.2378 -58.0848 153° Southeast  Level FlightAware Approximate
04:04AM -2.3560 -58.0243 153° Southeast  Level FlightAware Approximate
04:05AM -2.4742 -57.9639 153° Southeast  Level FlightAware Approximate
04:06AM -2.5924 -57.9034 153° Southeast  Level FlightAware Approximate
04:07AM -2.7106 -57.8429 153° Southeast  Level FlightAware Approximate
04:08AM -2.8289 -57.7825 153° Southeast  Level FlightAware Approximate
04:09AM -2.9471 -57.7220 153° Southeast  Level FlightAware Approximate
04:10AM -3.0652 -57.6614 153° Southeast  Level FlightAware Approximate
04:11AM -3.1834 -57.6009 153° Southeast  Level FlightAware Approximate
04:12AM -3.3016 -57.5404 153° Southeast  Level FlightAware Approximate
04:13AM -3.4198 -57.4798 153° Southeast  Level FlightAware Approximate
04:14AM -3.5380 -57.4193 153° Southeast  Level FlightAware Approximate
04:15AM -3.6562 -57.3587 153° Southeast  Level FlightAware Approximate
04:16AM -3.7743 -57.2981 153° Southeast  Level FlightAware Approximate
04:17AM -3.8925 -57.2375 153° Southeast  Level FlightAware Approximate
04:18AM -4.0107 -57.1769 153° Southeast  Level FlightAware Approximate
04:19AM -4.1288 -57.1162 153° Southeast  Level FlightAware Approximate
04:20AM -4.2470 -57.0555 153° Southeast  Level FlightAware Approximate
04:21AM -4.3651 -56.9949 153° Southeast  Level FlightAware Approximate
04:22AM -4.4833 -56.9342 153° Southeast  Level FlightAware Approximate
04:23AM -4.6014 -56.8734 153° Southeast  Level FlightAware Approximate
04:24AM -4.7195 -56.8127 153° Southeast  Level FlightAware Approximate
04:25AM -4.8376 -56.7519 153° Southeast  Level FlightAware Approximate
04:26AM -4.9558 -56.6912 153° Southeast  Level FlightAware Approximate
04:27AM -5.0739 -56.6303 153° Southeast  Level FlightAware Approximate
04:28AM -5.1920 -56.5695 153° Southeast  Level FlightAware Approximate
04:29AM -5.3101 -56.5087 153° Southeast  Level FlightAware Approximate
04:30AM -5.4282 -56.4478 153° Southeast  Level FlightAware Approximate
04:31AM -5.5463 -56.3869 153° Southeast  Level FlightAware Approximate
04:32AM -5.6644 -56.3260 153° Southeast  Level FlightAware Approximate
04:33AM -5.7825 -56.2650 153° Southeast  Level FlightAware Approximate
04:34AM -5.9005 -56.2041 153° Southeast  Level FlightAware Approximate
04:35AM -6.0186 -56.1431 153° Southeast  Level FlightAware Approximate
04:36AM -6.1367 -56.0820 153° Southeast  Level FlightAware Approximate
04:37AM -6.2547 -56.0210 153° Southeast  Level FlightAware Approximate
04:38AM -6.3728 -55.9599 153° Southeast  Level FlightAware Approximate
04:39AM -6.4908 -55.8988 153° Southeast  Level FlightAware Approximate
04:40AM -6.6088 -55.8377 153° Southeast  Level FlightAware Approximate
04:41AM -6.7269 -55.7765 153° Southeast  Level FlightAware Approximate
04:42AM -6.8449 -55.7153 153° Southeast  Level FlightAware Approximate
04:43AM -6.9629 -55.6540 153° Southeast  Level FlightAware Approximate
04:44AM -7.0809 -55.5928 153° Southeast  Level FlightAware Approximate
04:45AM -7.1989 -55.5315 153° Southeast  Level FlightAware Approximate
04:46AM -7.3169 -55.4702 153° Southeast  Level FlightAware Approximate
04:47AM -7.4349 -55.4088 153° Southeast  Level FlightAware Approximate
04:48AM -7.5528 -55.3474 153° Southeast  Level FlightAware Approximate
04:49AM -7.6708 -55.2860 153° Southeast  Level FlightAware Approximate
04:50AM -7.7887 -55.2246 153° Southeast  Level FlightAware Approximate
04:51AM -7.9067 -55.1631 153° Southeast  Level FlightAware Approximate
04:52AM -8.0246 -55.1016 153° Southeast  Level FlightAware Approximate
04:53AM -8.1425 -55.0400 153° Southeast  Level FlightAware Approximate
04:54AM -8.2604 -54.9784 153° Southeast  Level FlightAware Approximate
04:55AM -8.3784 -54.9168 153° Southeast  Level FlightAware Approximate
04:56AM -8.4963 -54.8551 153° Southeast  Level FlightAware Approximate
04:57AM -8.6141 -54.7934 153° Southeast  Level FlightAware Approximate
04:58AM -8.7320 -54.7316 153° Southeast  Level FlightAware Approximate
04:59AM -8.8499 -54.6699 153° Southeast  Level FlightAware Approximate
05:00AM -8.9677 -54.6080 153° Southeast  Level FlightAware Approximate
05:01AM -9.0856 -54.5462 153° Southeast  Level FlightAware Approximate
05:02AM -9.2034 -54.4843 153° Southeast  Level FlightAware Approximate
05:03AM -9.3213 -54.4223 153° Southeast  Level FlightAware Approximate
05:04AM -9.4391 -54.3603 153° Southeast  Level FlightAware Approximate
05:05AM -9.5569 -54.2983 153° Southeast  Level FlightAware Approximate
05:06AM -9.6747 -54.2362 153° Southeast  Level FlightAware Approximate
05:07AM -9.7924 -54.1741 153° Southeast  Level FlightAware Approximate
05:08AM -9.9102 -54.1119 153° Southeast  Level FlightAware Approximate
05:09AM -10.0280 -54.0497 153° Southeast  Level FlightAware Approximate
05:10AM -10.1457 -53.9875 153° Southeast  Level FlightAware Approximate
05:11AM -10.2635 -53.9252 152° Southeast  Level FlightAware Approximate
05:12AM -10.3812 -53.8629 152° Southeast  Level FlightAware Approximate
05:13AM -10.4989 -53.8005 152° Southeast  Level FlightAware Approximate
05:14AM -10.6166 -53.7380 152° Southeast  Level FlightAware Approximate
05:15AM -10.7343 -53.6755 152° Southeast  Level FlightAware Approximate
05:16AM -10.8520 -53.6130 152° Southeast  Level FlightAware Approximate
05:17AM -10.9696 -53.5504 152° Southeast  Level FlightAware Approximate
05:18AM -11.0873 -53.4878 152° Southeast  Level FlightAware Approximate
05:19AM -11.2049 -53.4251 152° Southeast  Level FlightAware Approximate
05:20AM -11.3225 -53.3624 152° Southeast  Level FlightAware Approximate
05:21AM -11.4401 -53.2996 152° Southeast  Level FlightAware Approximate
05:22AM -11.5577 -53.2367 152° Southeast  Level FlightAware Approximate
05:23AM -11.6753 -53.1739 152° Southeast  Level FlightAware Approximate
05:24AM -11.7929 -53.1109 152° Southeast  Level FlightAware Approximate
05:25AM -11.9104 -53.0479 152° Southeast  Level FlightAware Approximate
05:26AM -12.0280 -52.9849 152° Southeast  Level FlightAware Approximate
05:27AM -12.1455 -52.9217 152° Southeast  Level FlightAware Approximate
05:28AM -12.2630 -52.8586 152° Southeast  Level FlightAware Approximate
05:29AM -12.3805 -52.7954 152° Southeast  Level FlightAware Approximate
05:30AM -12.4980 -52.7321 152° Southeast  Level FlightAware Approximate
05:31AM -12.6155 -52.6687 152° Southeast  Level FlightAware Approximate
05:32AM -12.7329 -52.6054 152° Southeast  Level FlightAware Approximate
05:33AM -12.8504 -52.5419 152° Southeast  Level FlightAware Approximate
05:34AM -12.9678 -52.4784 152° Southeast  Level FlightAware Approximate
05:35AM -13.0852 -52.4148 152° Southeast  Level FlightAware Approximate
05:36AM -13.2026 -52.3512 152° Southeast  Level FlightAware Approximate
05:37AM -13.3200 -52.2875 152° Southeast  Level FlightAware Approximate
05:38AM -13.4373 -52.2237 152° Southeast  Level FlightAware Approximate
05:39AM -13.5547 -52.1599 152° Southeast  Level FlightAware Approximate
05:40AM -13.6720 -52.0960 152° Southeast  Level FlightAware Approximate
05:41AM -13.7893 -52.0321 152° Southeast  Level FlightAware Approximate
05:42AM -13.9066 -51.9681 152° Southeast  Level FlightAware Approximate
05:43AM -14.0239 -51.9040 152° Southeast  Level FlightAware Approximate
05:44AM -14.1412 -51.8399 152° Southeast  Level FlightAware Approximate
05:45AM -14.2584 -51.7757 152° Southeast  Level FlightAware Approximate
05:46AM -14.3756 -51.7114 152° Southeast  Level FlightAware Approximate
05:47AM -14.4929 -51.6471 152° Southeast  Level FlightAware Approximate
05:48AM -14.6100 -51.5826 152° Southeast  Level FlightAware Approximate
05:49AM -14.7272 -51.5182 152° Southeast  Level FlightAware Approximate
05:50AM -14.8444 -51.4536 152° Southeast  Level FlightAware Approximate
05:51AM -14.9615 -51.3890 152° Southeast  Level FlightAware Approximate
05:52AM -15.0786 -51.3243 152° Southeast  Level FlightAware Approximate
05:53AM -15.1957 -51.2595 152° Southeast  Level FlightAware Approximate
05:54AM -15.3128 -51.1947 152° Southeast  Level FlightAware Approximate
05:55AM -15.4299 -51.1298 152° Southeast  Level FlightAware Approximate
05:56AM -15.5469 -51.0648 152° Southeast  Level FlightAware Approximate
05:57AM -15.6640 -50.9998 152° Southeast  Level FlightAware Approximate
05:58AM -15.7810 -50.9347 152° Southeast  Level FlightAware Approximate
05:59AM -15.8980 -50.8695 152° Southeast  Level FlightAware Approximate
06:00AM -16.0149 -50.8042 152° Southeast  Level FlightAware Approximate
06:01AM -16.1319 -50.7388 152° Southeast  Level FlightAware Approximate
06:02AM -16.2488 -50.6734 152° Southeast  Level FlightAware Approximate
06:03AM -16.3657 -50.6079 152° Southeast  Level FlightAware Approximate
06:04AM -16.4826 -50.5423 152° Southeast  Level FlightAware Approximate
06:05AM -16.5995 -50.4767 152° Southeast  Level FlightAware Approximate
06:06AM -16.7163 -50.4109 152° Southeast  Level FlightAware Approximate
06:07AM -16.8332 -50.3451 152° Southeast  Level FlightAware Approximate
06:08AM -16.9500 -50.2792 152° Southeast  Level FlightAware Approximate
06:09AM -17.0668 -50.2132 152° Southeast  Level FlightAware Approximate
06:10AM -17.1835 -50.1471 152° Southeast  Level FlightAware Approximate
06:11AM -17.3003 -50.0810 152° Southeast  Level FlightAware Approximate
06:12AM -17.4170 -50.0147 152° Southeast  Level FlightAware Approximate
06:13AM -17.5337 -49.9484 152° Southeast  Level FlightAware Approximate
06:14AM -17.6504 -49.8820 152° Southeast  Level FlightAware Approximate
06:15AM -17.7670 -49.8155 152° Southeast  Level FlightAware Approximate
06:16AM -17.8836 -49.7489 151° Southeast  Level FlightAware Approximate
06:17AM -18.0003 -49.6823 151° Southeast  Level FlightAware Approximate
06:18AM -18.1168 -49.6155 151° Southeast  Level FlightAware Approximate
06:18AM -18.4830 -49.7740 151° Southeast 478 550 33,000  Level FlightAware
06:19AM -18.2334 -49.5487 151° Southeast  Level FlightAware Approximate
06:19AM -18.5670 -49.7300 154° Southeast 478 550 33,000  Level FlightAware
06:19AM -18.6110 -49.7060 153° Southeast 478 550 33,000  Level FlightAware
06:20AM -18.6720 -49.6740 154° Southeast 477 549 33,000  Level FlightAware
06:20AM -18.7450 -49.6350 153° Southeast 478 550 33,000  Level FlightAware
06:21AM -18.8350 -49.5870 153° Southeast 478 550 33,000  Level FlightAware
06:22AM -18.9470 -49.5250 152° Southeast 478 550 33,000  Level FlightAware
06:23AM -19.0330 -49.4780 153° Southeast 475 547 33,000  Level FlightAware
06:23AM -19.0970 -49.4430 153° Southeast 475 547 33,000  Level FlightAware
06:24AM -19.1940 -49.3900 153° Southeast 476 548 33,000  Level FlightAware
06:25AM -19.2660 -49.3500 152° Southeast 476 548 33,000  Level FlightAware
06:25AM -19.3350 -49.3120 153° Southeast 476 548 33,000  Level FlightAware
06:26AM -19.4040 -49.2740 153° Southeast 476 548 33,000  Level FlightAware
06:27AM -19.4810 -49.2310 152° Southeast 476 548 33,000  Level FlightAware
06:27AM -19.5420 -49.1970 152° Southeast 476 548 33,000  Level FlightAware
06:28AM -19.6150 -49.1570 153° Southeast 475 547 33,000  Level FlightAware
06:28AM -19.6920 -49.1140 152° Southeast 475 547 33,000  Level FlightAware
06:29AM -19.7780 -49.0670 153° Southeast 476 548 33,000  Level FlightAware
06:30AM -19.8510 -49.0260 152° Southeast 475 547 33,000  Level FlightAware
06:30AM -19.9260 -48.9840 152° Southeast 475 547 33,000  Level FlightAware
06:31AM -19.9780 -48.9550 152° Southeast 475 547 33,000  Level FlightAware
06:31AM -20.0470 -48.9170 153° Southeast 475 547 33,000  Level FlightAware
06:32AM -20.1330 -48.8690 152° Southeast 476 548 33,000  Level FlightAware
06:33AM -20.2120 -48.8250 152° Southeast 476 548 33,000  Level FlightAware
06:33AM -20.2730 -48.7910 152° Southeast 477 549 33,000  Level FlightAware
06:34AM -20.3500 -48.7470 152° Southeast 475 547 33,000  Level FlightAware
06:35AM -20.4250 -48.7080 154° Southeast 475 547 33,000  Level FlightAware
06:35AM -20.4910 -48.6590 145° Southeast 480 552 33,000  Level FlightAware
06:36AM -20.5440 -48.5940 131° Southeast 483 556 33,000  Level FlightAware
06:37AM -20.6040 -48.5150 129° Southeast 483 556 33,000  Level FlightAware
06:37AM -20.6580 -48.4470 130° Southeast 484 557 33,000  Level FlightAware
06:38AM -20.7110 -48.3810 131° Southeast 485 558 33,000  Level FlightAware
06:39AM -20.7840 -48.2960 133° Southeast 484 557 33,000  Level FlightAware
06:39AM -20.8440 -48.2450 142° Southeast 482 555 33,000  Level FlightAware
06:40AM -20.9100 -48.1900 142° Southeast 482 555 33,000  Level FlightAware
06:40AM -20.9650 -48.1440 142° Southeast 482 555 33,000  Level FlightAware
06:41AM -21.0350 -48.0880 143° Southeast 481 554 33,000  Level FlightAware
06:42AM -21.1140 -48.0280 145° Southeast 483 556 33,000  Level FlightAware
06:42AM -21.1840 -47.9750 145° Southeast 484 557 33,000  Level FlightAware
06:43AM -21.2460 -47.9260 144° Southeast 484 557 33,000  Level FlightAware
06:45AM -21.4420 -47.7880 147° Southeast 483 556 33,000  Level FlightAware
06:45AM -21.5340 -47.7340 151° Southeast 483 556 33,000  Level FlightAware
06:46AM -21.6270 -47.6760 150° Southeast 483 556 33,000  Level FlightAware
06:47AM -21.7120 -47.6230 150° Southeast 483 556 33,000  Level FlightAware
06:48AM -21.8100 -47.5640 151° Southeast 484 557 33,000  Level FlightAware
06:48AM -21.8820 -47.5200 150° Southeast 469 540 33,000 -480 Level FlightAware
06:49AM -21.9570 -47.4750 151° Southeast 462 532 32,400 -1,560 Descending FlightAware
06:50AM -22.0410 -47.4240 151° Southeast 457 526 30,800 -2,100 Descending FlightAware
06:50AM -22.1060 -47.3850 151° Southeast 450 518 29,600 -2,160 Descending FlightAware
06:51AM -22.1940 -47.3310 150° Southeast 434 499 27,800 -2,340 Descending FlightAware
06:52AM -22.2830 -47.2770 151° Southeast 419 482 25,700 -2,400 Descending FlightAware
06:53AM -22.3440 -47.2400 151° Southeast 411 473 24,300 -2,280 Descending FlightAware
06:53AM -22.4040 -47.2030 150° Southeast 402 463 23,000 -1,980 Descending FlightAware
06:54AM -22.4540 -47.1720 150° Southeast 396 456 22,100 -1,680 Descending FlightAware
06:54AM -22.5130 -47.1370 151° Southeast 390 449 21,100 -1,620 Descending FlightAware
06:55AM -22.5730 -47.1010 151° Southeast 389 448 20,100 -1,620 Descending FlightAware
06:56AM -22.6420 -47.0700 157° South 393 452 19,000 -1,740 Descending FlightAware
06:57AM -22.7210 -47.0370 159° South 392 451 17,600 -1,800 Descending FlightAware
06:58AM -22.8280 -46.9920 159° South 383 441 15,800 -1,740 Descending FlightAware
06:58AM -22.9100 -46.9580 159° South 380 437 14,300 -1,920 Descending FlightAware
06:59AM -22.9760 -46.9300 159° South 369 425 12,900 -2,100 Descending FlightAware
07:00AM -23.0170 -46.9130 159° South 360 414 12,000 -1,980 Descending FlightAware
07:00AM -23.0770 -46.8880 159° South 333 383 10,800 -1,620 Descending FlightAware
07:01AM -23.1250 -46.8670 158° South 294 338 10,000 -1,260 Descending FlightAware
07:01AM -23.1660 -46.8500 159° South 291 335 9,400 -1,140 Descending FlightAware
07:02AM -23.2200 -46.8270 159° South 292 336 8,600 -1,200 Descending FlightAware
07:03AM -23.2700 -46.8060 159° South 285 328 7,800 -780 Descending FlightAware
07:03AM -23.3080 -46.7900 159° South 258 297 7,700 -600 Descending FlightAware
07:04AM -23.3470 -46.7580 143° Southeast 241 277 7,100 -900 Descending FlightAware
07:05AM -23.3740 -46.7310 137° Southeast 234 269 6,600 -900 Descending FlightAware
07:05AM -23.3960 -46.7080 136° Southeast 226 260 6,200 -900 Descending FlightAware
07:05AM -23.4180 -46.6860 137° Southeast 224 258 5,800 -720 Descending FlightAware
07:06AM -23.4420 -46.6610 136° Southeast 222 255 5,500 -720 Descending FlightAware
07:06AM -23.4620 -46.6410 137° Southeast 213 245 5,100 -780 Descending FlightAware
07:07AM -23.4750 -46.6180 122° Southeast 196 226 4,800 -900 Descending FlightAware
07:07AM -23.4650 -46.5860 71° East 181 208 4,200 -1,020 Descending FlightAware
07:08AM -23.4580 -46.5580 75° East 174 200 3,700 -900 Descending FlightAware
07:09AM -23.4520 -46.5340 75° East 162 186 3,300 -840 Descending FlightAware
07:09AM -23.4420 -46.4980 73° East 161 185 2,700 -540 Descending FlightAware
07:10AM -23.4370 -46.4810 72° East 161 185 2,700  Level FlightAware